Time;durP1;ratioP1;P1;durP2;ratioP2;P2;SDS_P1;SDS_P2;PMS_P1;PMS_P2;Temp;Humidity;BMP_temperature;BMP_pressure;BME280_temperature;BME280_humidity;BME280_pressure;Samples;Min_cycle;Max_cycle;Signal;HPM_P1;HPM_P2
2023/12/26 00:00:46;;;;;;;4.50;4.30;;;13.40;99.90;;;;;;5087284;28;20838;-96
2023/12/26 00:03:12;;;;;;;3.75;3.55;;;13.80;99.90;;;;;;5075097;28;20039;-93
2023/12/26 00:05:43;;;;;;;4.03;3.83;;;13.80;99.90;;;;;;5077530;28;20046;-95
2023/12/26 00:08:16;;;;;;;3.70;3.50;;;14.00;99.90;;;;;;5075407;28;20047;-94
2023/12/26 00:10:45;;;;;;;3.92;3.72;;;13.30;99.90;;;;;;5070710;28;20516;-93
2023/12/26 00:13:11;;;;;;;3.83;3.63;;;13.90;99.90;;;;;;5072322;28;20077;-93
2023/12/26 00:15:37;;;;;;;3.80;3.60;;;13.90;99.90;;;;;;5072093;28;20044;-93
2023/12/26 00:18:06;;;;;;;3.90;3.70;;;13.30;99.90;;;;;;5071483;28;20054;-94
2023/12/26 00:20:32;;;;;;;3.90;3.70;;;14.10;99.90;;;;;;5062705;28;20486;-96
2023/12/26 00:22:57;;;;;;;4.10;3.90;;;14.00;99.90;;;;;;5072349;28;20075;-91
2023/12/26 00:25:23;;;;;;;4.00;3.80;;;14.00;99.90;;;;;;5069109;28;20072;-93
2023/12/26 00:28:08;;;;;;;3.90;3.70;;;13.40;99.90;;;;;;5086416;28;20134;-96
2023/12/26 00:30:43;;;;;;;4.10;3.90;;;13.80;99.90;;;;;;5072173;28;20484;-94
2023/12/26 00:33:26;;;;;;;4.18;3.97;;;14.10;99.90;;;;;;5071249;28;20063;-94
2023/12/26 00:35:58;;;;;;;4.13;3.92;;;13.40;99.90;;;;;;5070370;28;20105;-93
2023/12/26 00:38:30;;;;;;;4.22;4.03;;;13.40;99.90;;;;;;5057158;28;20044;-96
2023/12/26 00:41:05;;;;;;;4.13;3.92;;;14.00;99.90;;;;;;5070940;28;20055;-96
2023/12/26 00:43:31;;;;;;;4.00;3.80;;;13.80;99.90;;;;;;5075264;28;20083;-94
2023/12/26 00:45:58;;;;;;;4.20;4.00;;;13.50;99.90;;;;;;5068427;28;20067;-93
2023/12/26 00:49:06;;;;;;;3.67;3.47;;;13.90;99.90;;;;;;5072500;28;20036;-96
2023/12/26 00:51:31;;;;;;;4.00;3.80;;;14.10;99.90;;;;;;5031384;28;20040;-93
2023/12/26 00:54:13;;;;;;;;;;;;;;;;;;;;;
2023/12/26 00:56:46;;;;;;;3.85;3.65;;;14.10;99.90;;;;;;5089499;28;20056;-94
2023/12/26 00:59:15;;;;;;;3.92;3.72;;;14.30;99.90;;;;;;5074640;28;20115;-93
2023/12/26 01:01:41;;;;;;;3.70;3.50;;;14.30;99.90;;;;;;5073330;28;20454;-92
2023/12/26 01:05:01;;;;;;;4.03;3.83;;;14.30;99.90;;;;;;5092396;28;20062;-95
2023/12/26 01:07:59;;;;;;;4.00;3.80;;;13.70;99.90;;;;;;5069463;28;20063;-96
2023/12/26 01:10:35;;;;;;;4.47;4.28;;;14.20;99.90;;;;;;5090588;28;20247;-93
2023/12/26 01:13:02;;;;;;;3.90;3.70;;;13.60;99.90;;;;;;5074649;28;20048;-92
2023/12/26 01:19:39;;;;;;;3.70;3.50;;;13.90;99.90;;;;;;5092552;28;20071;-96
2023/12/26 01:22:27;;;;;;;4.43;4.22;;;14.50;99.90;;;;;;5076841;28;20046;-96
2023/12/26 01:24:55;;;;;;;4.53;4.32;;;14.20;99.90;;;;;;5064583;28;20051;-95
2023/12/26 01:27:42;;;;;;;4.47;4.28;;;14.10;99.90;;;;;;5077109;28;20040;-90
2023/12/26 01:30:23;;;;;;;5.45;5.15;;;13.60;99.90;;;;;;5078939;28;20039;-93
2023/12/26 01:32:54;;;;;;;4.32;4.13;;;13.50;99.90;;;;;;5072482;28;20036;-96
2023/12/26 01:36:01;;;;;;;4.30;4.10;;;13.40;99.90;;;;;;5076628;28;20377;-95
2023/12/26 01:41:35;;;;;;;3.63;3.42;;;13.40;99.90;;;;;;5034790;28;20045;-93
2023/12/26 01:44:21;;;;;;;4.18;3.97;;;13.60;99.90;;;;;;5077612;28;20134;-93
2023/12/26 01:50:22;;;;;;;4.18;3.97;;;13.90;99.90;;;;;;5096516;28;20047;-95
2023/12/26 01:52:57;;;;;;;4.43;4.22;;;13.90;99.90;;;;;;5075051;28;20032;-92
2023/12/26 01:55:26;;;;;;;4.53;4.32;;;13.90;99.90;;;;;;5078489;28;20058;-95
2023/12/26 01:58:24;;;;;;;;;;;;;;;;;;;;;
2023/12/26 02:01:06;;;;;;;5.03;4.72;;;13.90;99.90;;;;;;5094584;28;20615;-95
2023/12/26 02:04:03;;;;;;;4.68;4.45;;;13.70;99.90;;;;;;5099726;28;20043;-96
2023/12/26 02:21:52;;;;;;;5.45;5.15;;;13.60;99.90;;;;;;4911615;29;20123;-96
2023/12/26 02:24:21;;;;;;;5.07;4.78;;;13.40;99.90;;;;;;4898320;29;20055;-93
2023/12/26 02:30:34;;;;;;;4.53;4.32;;;13.40;99.90;;;;;;4922389;29;20043;-95
2023/12/26 02:33:37;;;;;;;4.70;4.50;;;13.60;99.90;;;;;;4904702;29;20051;-96
2023/12/26 02:40:11;;;;;;;3.90;3.70;;;13.40;99.90;;;;;;4951056;29;20106;-94
2023/12/26 02:43:18;;;;;;;4.93;4.68;;;13.50;99.90;;;;;;4921602;29;20055;-94
2023/12/26 02:49:41;;;;;;;3.97;3.78;;;13.50;99.90;;;;;;4982505;28;20556;-94
2023/12/26 02:56:33;;;;;;;4.88;4.65;;;13.70;99.90;;;;;;4980674;28;20037;-95
2023/12/26 02:59:11;;;;;;;;;;;13.80;99.90;;;;;;4976407;28;20590;-96
2023/12/26 03:01:37;;;;;;;4.13;3.92;;;13.50;99.90;;;;;;4961858;28;19976;-93
2023/12/26 03:04:31;;;;;;;4.10;3.90;;;13.60;99.90;;;;;;4959641;28;20101;-96
2023/12/26 03:07:17;;;;;;;5.10;4.80;;;13.80;99.90;;;;;;4968847;28;20062;-96
2023/12/26 03:13:52;;;;;;;4.85;4.65;;;13.70;99.90;;;;;;4921638;29;20043;-93
2023/12/26 03:16:56;;;;;;;4.00;3.80;;;13.60;99.90;;;;;;4908217;29;20059;-96
2023/12/26 03:19:30;;;;;;;4.97;4.70;;;13.90;99.90;;;;;;4864424;29;20056;-94
2023/12/26 03:22:08;;;;;;;5.10;4.80;;;13.70;99.90;;;;;;4884039;29;20168;-93
2023/12/26 03:24:44;;;;;;;4.95;4.70;;;13.60;99.90;;;;;;4892428;29;21081;-94
2023/12/26 03:27:21;;;;;;;5.03;4.72;;;13.80;99.90;;;;;;4904899;29;20036;-96
2023/12/26 03:30:42;;;;;;;5.07;4.78;;;13.70;99.90;;;;;;5041954;28;20130;-96
2023/12/26 03:33:17;;;;;;;5.25;4.95;;;13.70;99.90;;;;;;5116069;27;20044;-96
2023/12/26 03:35:49;;;;;;;5.13;4.82;;;13.70;99.90;;;;;;5078406;28;20131;-95
2023/12/26 03:38:45;;;;;;;4.85;4.63;;;13.70;99.90;;;;;;5081843;28;20047;-96
2023/12/26 03:53:10;;;;;;;;;;;;;;;;;;;;;
2023/12/26 03:59:18;;;;;;;5.25;4.95;;;13.70;99.90;;;;;;4902547;28;20110;-91
2023/12/26 04:02:09;;;;;;;5.47;5.18;;;13.70;99.90;;;;;;4920533;29;20043;-96
2023/12/26 04:04:49;;;;;;;5.47;5.18;;;13.50;99.90;;;;;;4948958;28;20199;-93
2023/12/26 04:07:23;;;;;;;5.25;4.95;;;13.50;99.90;;;;;;4989036;28;20061;-92
2023/12/26 04:10:30;;;;;;;5.18;4.88;;;13.30;99.90;;;;;;4993217;28;20081;-96
2023/12/26 04:12:56;;;;;;;4.75;4.55;;;13.10;99.90;;;;;;4996374;28;20045;-94
2023/12/26 04:15:28;;;;;;;5.40;5.10;;;13.00;99.90;;;;;;5028980;28;20119;-94
2023/12/26 04:18:35;;;;;;;5.25;4.95;;;12.80;99.90;;;;;;5074846;28;20079;-93
2023/12/26 04:21:34;;;;;;;4.68;4.47;;;12.70;99.90;;;;;;5072852;28;20040;-95
2023/12/26 04:24:26;;;;;;;4.35;4.15;;;12.50;99.90;;;;;;5083875;28;20101;-95
2023/12/26 04:27:01;;;;;;;3.83;3.63;;;12.30;99.90;;;;;;5076036;28;20052;-95
2023/12/26 04:30:14;;;;;;;3.80;3.60;;;12.20;99.90;;;;;;5081100;28;20093;-96
2023/12/26 04:32:48;;;;;;;4.57;4.38;;;12.10;99.90;;;;;;5078359;28;20035;-96
2023/12/26 04:35:26;;;;;;;3.83;3.63;;;12.00;99.90;;;;;;5074101;28;20075;-92
2023/12/26 04:38:17;;;;;;;3.55;3.35;;;12.00;99.90;;;;;;5078858;28;20048;-94
2023/12/26 04:40:58;;;;;;;3.80;3.60;;;12.00;99.90;;;;;;5014668;28;20057;-95
2023/12/26 04:43:24;;;;;;;4.00;3.80;;;12.00;99.90;;;;;;5014018;28;20085;-96
2023/12/26 04:45:53;;;;;;;4.20;4.00;;;12.00;99.90;;;;;;5048207;28;20047;-95
2023/12/26 04:48:25;;;;;;;4.72;4.45;;;11.90;99.90;;;;;;5076422;28;20036;-94
2023/12/26 04:51:21;;;;;;;5.07;4.78;;;11.90;99.90;;;;;;5110714;28;20035;-95
2023/12/26 04:54:09;;;;;;;5.25;4.95;;;11.80;99.90;;;;;;5077616;28;20581;-91
2023/12/26 04:56:56;;;;;;;4.60;4.30;;;11.80;99.90;;;;;;5095304;28;20054;-96
2023/12/26 05:00:21;;;;;;;4.68;4.38;;;11.90;99.90;;;;;;5096746;28;20107;-96
2023/12/26 05:02:47;;;;;;;5.18;4.88;;;11.80;99.90;;;;;;5079639;28;20040;-94
2023/12/26 05:12:17;;;;;;;5.82;5.45;;;11.80;99.90;;;;;;5099837;28;20046;-93
2023/12/26 05:15:44;;;;;;;5.65;5.30;;;11.70;99.90;;;;;;5095680;28;20054;-96
2023/12/26 05:19:01;;;;;;;5.93;5.53;;;11.50;99.90;;;;;;5082296;28;20032;-94
2023/12/26 05:22:39;;;;;;;6.65;6.25;;;11.60;99.90;;;;;;5016014;28;20049;-96
2023/12/26 05:29:20;;;;;;;5.85;5.45;;;11.50;99.90;;;;;;4979647;28;20080;-95
2023/12/26 05:35:52;;;;;;;7.07;6.60;;;11.50;99.90;;;;;;4936334;29;20063;-94
2023/12/26 05:38:54;;;;;;;7.70;7.20;;;11.50;99.90;;;;;;4911564;29;20125;-95
2023/12/26 05:42:05;;;;;;;7.15;6.68;;;11.40;99.90;;;;;;4928429;29;20111;-95
2023/12/26 05:48:10;;;;;;;7.18;6.70;;;11.50;99.90;;;;;;4968527;28;20100;-96
2023/12/26 05:55:51;;;;;;;7.47;6.97;;;11.50;99.90;;;;;;4949535;29;20576;-96
2023/12/26 06:06:17;;;;;;;;;;;;;;;;;;;;;
2023/12/26 06:09:14;;;;;;;8.80;8.25;;;11.70;99.90;;;;;;4831280;29;20069;-95
2023/12/26 06:11:55;;;;;;;8.15;7.65;;;11.80;99.90;;;;;;4870904;29;20076;-96
2023/12/26 06:18:38;;;;;;;9.23;8.63;;;11.90;99.90;;;;;;4864619;29;20146;-96
2023/12/26 06:21:04;;;;;;;9.38;8.77;;;11.90;99.90;;;;;;4905426;28;20064;-95
2023/12/26 06:23:36;;;;;;;9.23;8.63;;;12.00;99.90;;;;;;4963604;28;20132;-95
2023/12/26 06:29:08;;;;;;;9.55;8.95;;;12.10;99.90;;;;;;4950178;28;20042;-94
2023/12/26 06:31:43;;;;;;;9.38;8.77;;;12.20;99.90;;;;;;5071647;28;20073;-95
2023/12/26 06:34:12;;;;;;;10.20;9.60;;;12.30;99.90;;;;;;5080501;28;20043;-93
2023/12/26 06:37:38;;;;;;;10.07;9.48;;;12.30;99.90;;;;;;5078668;28;20120;-94
2023/12/26 06:40:31;;;;;;;9.02;8.45;;;12.30;99.90;;;;;;5009174;28;20564;-96
2023/12/26 06:43:08;;;;;;;10.55;9.93;;;12.30;99.90;;;;;;5080338;28;20119;-91
2023/12/26 06:45:59;;;;;;;8.77;8.23;;;12.30;99.90;;;;;;5080362;28;20146;-95
2023/12/26 06:48:42;;;;;;;8.68;8.15;;;12.30;99.90;;;;;;5080646;28;20043;-93
2023/12/26 06:51:14;;;;;;;9.98;9.38;;;12.30;99.90;;;;;;5074938;28;20047;-95
2023/12/26 06:53:40;;;;;;;8.85;8.30;;;12.30;99.90;;;;;;5079253;28;20095;-92
2023/12/26 06:56:06;;;;;;;10.13;9.52;;;12.30;99.90;;;;;;5077788;28;20036;-93
2023/12/26 06:58:32;;;;;;;9.10;8.55;;;12.30;99.90;;;;;;5079821;28;20039;-93
2023/12/26 07:01:02;;;;;;;9.35;8.77;;;12.40;99.90;;;;;;5076186;28;20094;-96
2023/12/26 07:03:30;;;;;;;8.27;7.78;;;12.40;99.90;;;;;;5078320;28;20051;-93
2023/12/26 07:06:02;;;;;;;8.85;8.35;;;12.40;99.90;;;;;;5076811;28;20470;-93
2023/12/26 07:08:28;;;;;;;8.43;7.93;;;12.30;99.90;;;;;;5078601;28;20054;-94
2023/12/26 07:11:29;;;;;;;8.90;8.38;;;12.40;99.90;;;;;;5074963;28;20059;-95
2023/12/26 07:13:54;;;;;;;7.25;6.80;;;12.30;99.90;;;;;;5076676;28;20546;-92
2023/12/26 07:16:29;;;;;;;7.55;7.07;;;12.40;99.90;;;;;;5074022;28;20036;-94
2023/12/26 07:19:02;;;;;;;7.43;6.97;;;12.40;99.90;;;;;;5076268;28;20450;-93
2023/12/26 07:21:30;;;;;;;8.63;8.13;;;12.40;99.90;;;;;;5077216;28;20043;-92
2023/12/26 07:23:59;;;;;;;8.82;8.32;;;12.40;99.90;;;;;;5074959;28;20077;-94
2023/12/26 07:26:25;;;;;;;8.65;8.15;;;12.40;99.90;;;;;;5077335;28;20069;-94
2023/12/26 07:29:20;;;;;;;8.48;7.97;;;12.40;99.90;;;;;;5094366;28;20130;-93
2023/12/26 07:31:55;;;;;;;8.75;8.25;;;12.30;99.90;;;;;;5072236;28;20160;-91
2023/12/26 07:34:49;;;;;;;7.80;7.30;;;12.40;99.90;;;;;;5095044;28;20389;-92
2023/12/26 07:37:17;;;;;;;7.60;7.10;;;12.40;99.90;;;;;;5072614;28;20047;-93
2023/12/26 07:39:43;;;;;;;8.05;7.55;;;12.30;99.90;;;;;;5075873;28;20793;-92
2023/12/26 07:42:22;;;;;;;8.48;7.97;;;12.30;99.90;;;;;;5074965;28;20047;-95
2023/12/26 07:45:07;;;;;;;7.28;6.82;;;12.30;99.90;;;;;;5074176;28;20567;-96
2023/12/26 07:47:39;;;;;;;8.02;7.53;;;12.40;99.90;;;;;;5078541;28;20047;-94
2023/12/26 07:50:08;;;;;;;7.85;7.35;;;12.40;99.90;;;;;;5077666;28;20089;-96
2023/12/26 07:52:37;;;;;;;7.90;7.40;;;12.30;99.90;;;;;;5076060;28;20051;-94
2023/12/26 07:55:03;;;;;;;7.70;7.20;;;12.30;99.90;;;;;;5079282;28;20040;-95
2023/12/26 07:57:29;;;;;;;7.82;7.32;;;12.30;99.90;;;;;;5093066;28;20104;-93
2023/12/26 07:59:55;;;;;;;7.57;7.10;;;12.30;99.90;;;;;;5077364;28;20051;-92
2023/12/26 08:02:21;;;;;;;6.45;6.05;;;12.30;99.90;;;;;;5077166;28;20051;-94
2023/12/26 08:04:46;;;;;;;6.85;6.45;;;12.30;99.90;;;;;;5076708;28;20059;-91
2023/12/26 08:07:20;;;;;;;7.28;6.88;;;12.30;99.90;;;;;;5076703;28;20047;-94
2023/12/26 08:09:52;;;;;;;7.18;6.78;;;12.40;99.90;;;;;;5079455;28;20044;-92
2023/12/26 08:12:18;;;;;;;6.85;6.45;;;12.30;99.90;;;;;;5077410;28;20054;-90
2023/12/26 08:15:13;;;;;;;6.28;5.88;;;12.20;99.90;;;;;;5072585;28;20043;-95
2023/12/26 08:17:39;;;;;;;6.57;6.18;;;12.10;99.90;;;;;;5076399;28;20078;-93
2023/12/26 08:20:08;;;;;;;6.63;6.22;;;12.10;99.90;;;;;;5075700;28;20119;-94
2023/12/26 08:22:37;;;;;;;6.47;6.07;;;12.10;99.90;;;;;;5075515;28;20043;-94
2023/12/26 08:25:04;;;;;;;6.38;5.97;;;12.20;99.90;;;;;;5077156;28;20043;-93
2023/12/26 08:27:29;;;;;;;6.57;6.18;;;12.20;99.90;;;;;;5091935;28;20122;-94
2023/12/26 08:29:58;;;;;;;7.53;7.07;;;12.20;99.90;;;;;;5092133;28;20130;-92
2023/12/26 08:32:27;;;;;;;8.10;7.60;;;12.20;99.90;;;;;;5094532;28;20052;-94
2023/12/26 08:34:53;;;;;;;5.95;5.57;;;12.20;99.90;;;;;;5073409;28;20043;-90
2023/12/26 08:37:19;;;;;;;6.32;5.93;;;12.30;99.90;;;;;;5073635;28;20050;-92
2023/12/26 08:39:45;;;;;;;7.80;7.32;;;12.20;99.90;;;;;;5090081;28;20047;-93
2023/12/26 08:42:17;;;;;;;7.30;6.90;;;12.20;99.90;;;;;;5108416;28;20089;-95
2023/12/26 08:44:43;;;;;;;7.15;6.75;;;12.20;99.90;;;;;;5074822;28;20093;-91
2023/12/26 08:47:08;;;;;;;7.22;6.82;;;12.20;99.90;;;;;;5074306;28;20047;-91
2023/12/26 08:49:34;;;;;;;6.55;6.15;;;12.20;99.90;;;;;;5074729;28;20043;-93
2023/12/26 08:52:02;;;;;;;6.20;5.80;;;12.10;99.90;;;;;;5079933;28;20055;-92
2023/12/26 08:54:28;;;;;;;5.80;5.47;;;12.20;99.90;;;;;;5078919;28;20295;-93
2023/12/26 08:56:57;;;;;;;6.03;5.65;;;12.20;99.90;;;;;;5095271;28;20046;-94
2023/12/26 08:59:23;;;;;;;6.50;6.10;;;12.10;99.90;;;;;;5077453;28;21348;-91
2023/12/26 09:01:57;;;;;;;5.75;5.43;;;12.10;99.90;;;;;;5090950;28;20060;-96
2023/12/26 09:04:32;;;;;;;6.70;6.30;;;12.20;99.90;;;;;;5076806;28;20036;-92
2023/12/26 09:06:59;;;;;;;5.80;5.45;;;12.20;99.90;;;;;;5072053;28;20040;-92
2023/12/26 09:09:27;;;;;;;6.63;6.22;;;12.20;99.90;;;;;;5073239;28;20131;-91
2023/12/26 09:11:56;;;;;;;6.78;6.38;;;12.20;99.90;;;;;;5082341;28;20627;-93
2023/12/26 09:14:31;;;;;;;5.72;5.40;;;12.20;99.90;;;;;;5078630;28;20039;-95
2023/12/26 09:17:08;;;;;;;5.88;5.53;;;12.20;99.90;;;;;;5079406;28;20044;-93
2023/12/26 09:19:37;;;;;;;6.43;6.03;;;12.20;99.90;;;;;;5075716;28;20819;-91
2023/12/26 09:22:03;;;;;;;5.88;5.53;;;12.10;99.90;;;;;;5078263;28;20055;-93
2023/12/26 09:24:34;;;;;;;6.05;5.68;;;12.10;99.90;;;;;;5077996;28;20035;-91
2023/12/26 09:26:59;;;;;;;6.68;6.28;;;12.10;99.90;;;;;;5078859;28;20040;-93
2023/12/26 09:29:25;;;;;;;6.03;5.68;;;12.10;99.90;;;;;;5094906;28;20394;-94
2023/12/26 09:31:53;;;;;;;6.75;6.35;;;12.20;99.90;;;;;;5075224;28;20044;-93
2023/12/26 09:34:19;;;;;;;6.43;6.03;;;12.30;99.90;;;;;;5076875;28;20083;-91
2023/12/26 09:36:44;;;;;;;6.35;5.95;;;12.30;99.90;;;;;;5096996;28;20079;-93
2023/12/26 09:39:10;;;;;;;5.95;5.60;;;12.20;99.90;;;;;;5077016;28;20078;-92
2023/12/26 09:41:48;;;;;;;6.65;6.25;;;12.20;99.90;;;;;;5078018;28;20044;-92
2023/12/26 09:44:14;;;;;;;5.75;5.43;;;12.20;99.90;;;;;;5079051;28;20039;-93
2023/12/26 09:46:40;;;;;;;5.85;5.53;;;12.10;99.90;;;;;;5076150;28;20404;-92
2023/12/26 09:49:06;;;;;;;6.50;6.13;;;12.10;99.90;;;;;;5076898;28;20044;-90
2023/12/26 09:51:37;;;;;;;6.32;5.95;;;12.10;99.90;;;;;;5078773;28;20047;-91
2023/12/26 09:54:04;;;;;;;5.88;5.55;;;12.10;99.90;;;;;;5079345;28;20046;-92
2023/12/26 09:56:32;;;;;;;4.95;4.65;;;12.20;99.90;;;;;;5093317;28;20130;-92
2023/12/26 09:59:02;;;;;;;6.45;6.07;;;12.30;99.90;;;;;;5095451;28;20130;-90
2023/12/26 10:01:32;;;;;;;5.65;5.35;;;12.30;99.90;;;;;;5074757;28;20074;-91
2023/12/26 10:04:07;;;;;;;5.50;5.20;;;12.30;99.90;;;;;;5075954;28;20051;-92
2023/12/26 10:06:42;;;;;;;6.25;5.88;;;12.40;99.90;;;;;;5073625;28;20047;-94
2023/12/26 10:09:11;;;;;;;6.53;6.15;;;12.30;99.90;;;;;;5089710;28;20127;-92
2023/12/26 10:11:43;;;;;;;6.80;6.40;;;12.30;99.90;;;;;;5075114;28;20139;-90
2023/12/26 10:14:09;;;;;;;6.75;6.35;;;12.40;99.90;;;;;;5075683;28;20101;-90
2023/12/26 10:16:35;;;;;;;5.63;5.32;;;12.40;99.90;;;;;;5075154;28;20039;-91
2023/12/26 10:19:10;;;;;;;6.80;6.40;;;12.40;99.90;;;;;;5075481;28;20042;-93
2023/12/26 10:21:36;;;;;;;6.53;6.13;;;12.50;99.90;;;;;;5075186;28;20074;-90
2023/12/26 10:24:02;;;;;;;5.32;5.03;;;12.50;99.90;;;;;;5075804;28;20048;-94
2023/12/26 10:26:29;;;;;;;6.63;6.22;;;12.50;99.90;;;;;;5075989;28;20849;-88
2023/12/26 10:28:55;;;;;;;6.18;5.85;;;12.40;99.90;;;;;;5076321;28;20103;-91
2023/12/26 10:31:25;;;;;;;5.47;5.18;;;12.40;99.90;;;;;;5095049;28;20047;-90
2023/12/26 10:33:51;;;;;;;5.13;4.82;;;12.60;99.90;;;;;;5075076;28;20047;-89
2023/12/26 10:36:20;;;;;;;5.35;5.05;;;12.80;99.90;;;;;;5071850;28;20092;-92
2023/12/26 10:38:46;;;;;;;5.35;5.05;;;12.80;99.90;;;;;;5075013;28;20051;-93
2023/12/26 10:41:24;;;;;;;6.55;6.22;;;12.70;99.90;;;;;;5077055;28;20103;-94
2023/12/26 10:43:59;;;;;;;6.68;6.32;;;12.80;99.90;;;;;;5086255;28;20489;-94
2023/12/26 10:46:26;;;;;;;6.72;6.32;;;12.80;99.90;;;;;;5075041;28;20047;-90
2023/12/26 10:48:55;;;;;;;5.00;4.70;;;12.80;99.90;;;;;;5074841;28;20071;-92
2023/12/26 10:51:25;;;;;;;6.10;5.80;;;12.80;99.90;;;;;;5072628;28;20052;-92
2023/12/26 10:54:03;;;;;;;6.00;5.70;;;12.80;99.90;;;;;;5058671;28;20397;-89
2023/12/26 10:56:35;;;;;;;4.55;4.35;;;12.80;99.90;;;;;;5073288;28;20054;-92
2023/12/26 10:59:03;;;;;;;6.25;5.95;;;12.80;99.90;;;;;;5081337;28;20043;-93
2023/12/26 13:53:21;;;;;;;3.58;3.38;;;12.80;99.90;;;;;;5088637;28;20040;-92
2023/12/26 13:55:47;;;;;;;3.97;3.78;;;12.80;99.90;;;;;;5094738;28;20043;-88
2023/12/26 13:58:13;;;;;;;4.68;4.47;;;12.80;99.90;;;;;;5093330;28;20049;-91
2023/12/26 14:00:39;;;;;;;3.72;3.53;;;12.80;99.90;;;;;;5077196;28;20103;-88
2023/12/26 14:03:04;;;;;;;5.32;5.07;;;12.80;99.90;;;;;;5076761;28;20668;-94
2023/12/26 14:05:30;;;;;;;5.03;4.82;;;12.80;99.90;;;;;;5073067;28;20055;-89
2023/12/26 14:07:57;;;;;;;3.50;3.30;;;12.80;99.90;;;;;;5074202;28;20409;-89
2023/12/26 14:10:23;;;;;;;4.65;4.45;;;12.80;99.90;;;;;;5088938;28;20519;-90
2023/12/26 14:12:49;;;;;;;4.55;4.35;;;12.80;99.90;;;;;;5074581;28;20051;-88
2023/12/26 14:15:15;;;;;;;4.13;3.92;;;12.70;99.90;;;;;;5073510;28;22253;-90
2023/12/26 14:17:40;;;;;;;5.10;4.85;;;12.80;99.90;;;;;;5076829;28;20067;-88
2023/12/26 14:20:07;;;;;;;4.45;4.25;;;12.70;99.90;;;;;;5076029;28;20048;-93
2023/12/26 14:22:33;;;;;;;4.38;4.18;;;12.60;99.90;;;;;;5075061;28;20044;-91
2023/12/26 14:24:59;;;;;;;4.47;4.28;;;12.60;99.90;;;;;;5091261;28;20369;-92
2023/12/26 14:27:24;;;;;;;4.78;4.50;;;12.40;99.90;;;;;;5092865;28;20485;-91
2023/12/26 14:29:53;;;;;;;5.05;4.80;;;12.40;99.90;;;;;;5078389;28;20056;-93
2023/12/26 14:32:18;;;;;;;4.13;3.92;;;12.30;99.90;;;;;;5074608;28;20031;-91
2023/12/26 14:34:44;;;;;;;3.10;3.00;;;12.20;99.90;;;;;;5093022;28;20062;-91
2023/12/26 14:37:11;;;;;;;3.65;3.45;;;12.10;99.90;;;;;;5074076;28;20092;-89
2023/12/26 14:39:40;;;;;;;3.75;3.55;;;12.00;99.90;;;;;;5077657;28;20105;-94
2023/12/26 14:42:09;;;;;;;3.80;3.60;;;11.90;99.90;;;;;;5077802;28;20039;-90
2023/12/26 14:44:34;;;;;;;2.78;2.67;;;11.90;99.90;;;;;;5092730;28;20044;-92
2023/12/26 14:47:00;;;;;;;3.00;2.90;;;11.80;99.90;;;;;;5073963;28;20042;-90
2023/12/26 14:49:26;;;;;;;2.75;2.65;;;11.70;99.90;;;;;;5070693;28;20040;-90
2023/12/26 14:51:51;;;;;;;3.67;3.47;;;11.60;99.90;;;;;;5076805;28;20048;-92
2023/12/26 14:54:17;;;;;;;3.00;2.90;;;11.60;99.90;;;;;;5091263;28;20052;-90
2023/12/26 14:56:43;;;;;;;2.92;2.83;;;11.60;99.90;;;;;;5077220;28;20039;-90
2023/12/26 14:59:09;;;;;;;4.25;4.05;;;11.60;99.90;;;;;;5076406;28;20082;-92
2023/12/26 15:01:35;;;;;;;2.97;2.88;;;11.50;99.90;;;;;;5075916;28;20477;-94
2023/12/26 15:04:03;;;;;;;3.88;3.67;;;11.50;99.90;;;;;;5071157;28;20104;-90
2023/12/26 15:06:30;;;;;;;2.97;2.88;;;11.50;99.90;;;;;;5089533;28;20053;-93
2023/12/26 15:08:56;;;;;;;3.92;3.72;;;11.40;99.90;;;;;;5094813;28;20043;-89
2023/12/26 15:11:22;;;;;;;3.97;3.78;;;11.50;99.90;;;;;;5070409;28;20043;-89
2023/12/26 15:13:47;;;;;;;3.28;3.17;;;11.50;99.90;;;;;;5075583;28;20480;-91
2023/12/26 15:16:22;;;;;;;3.28;3.17;;;11.40;99.90;;;;;;5092235;28;20417;-95
2023/12/26 15:18:48;;;;;;;3.47;3.28;;;11.40;99.90;;;;;;5077128;28;20057;-93
2023/12/26 15:21:14;;;;;;;3.95;3.75;;;11.30;99.90;;;;;;5074110;28;20043;-90
2023/12/26 15:23:40;;;;;;;3.85;3.65;;;11.30;99.90;;;;;;5074210;28;20062;-91
2023/12/26 15:26:13;;;;;;;3.05;2.95;;;11.30;99.90;;;;;;5090810;28;20051;-92
2023/12/26 15:28:43;;;;;;;3.13;2.93;;;11.20;99.90;;;;;;5073125;28;20126;-91
2023/12/26 15:31:16;;;;;;;3.13;3.03;;;11.20;99.90;;;;;;5076141;28;20774;-91
2023/12/26 15:33:49;;;;;;;4.28;4.07;;;11.10;99.90;;;;;;5072134;28;20035;-92
2023/12/26 15:36:19;;;;;;;3.90;3.70;;;11.00;99.90;;;;;;5076304;28;20496;-92
2023/12/26 15:38:46;;;;;;;3.30;3.13;;;11.00;99.90;;;;;;5076176;28;20055;-92
2023/12/26 15:41:12;;;;;;;4.00;3.80;;;11.00;99.90;;;;;;5073615;28;20054;-92
2023/12/26 15:43:39;;;;;;;3.60;3.40;;;10.90;99.90;;;;;;5077230;28;20047;-91
2023/12/26 15:46:23;;;;;;;4.07;3.88;;;10.80;99.90;;;;;;5073872;28;20050;-89
2023/12/26 15:48:50;;;;;;;4.03;3.83;;;10.70;99.90;;;;;;5089461;28;20047;-89
2023/12/26 15:51:19;;;;;;;3.13;3.00;;;10.60;99.90;;;;;;5070980;28;20048;-90
2023/12/26 15:53:45;;;;;;;4.03;3.83;;;10.60;99.90;;;;;;5066261;28;20188;-91
2023/12/26 15:56:12;;;;;;;3.83;3.63;;;10.50;99.90;;;;;;5067338;28;20048;-90
2023/12/26 15:58:38;;;;;;;3.00;2.90;;;10.50;99.90;;;;;;5067414;28;20046;-89
2023/12/26 16:01:04;;;;;;;3.30;3.10;;;10.40;99.90;;;;;;5089874;28;20051;-90
2023/12/26 16:03:30;;;;;;;3.65;3.45;;;10.40;99.90;;;;;;5067844;28;20493;-93
2023/12/26 16:05:56;;;;;;;3.10;2.97;;;10.40;99.90;;;;;;5065589;28;20047;-89
2023/12/26 16:08:21;;;;;;;3.00;2.90;;;10.40;99.90;;;;;;5068450;28;20040;-90
2023/12/26 16:10:51;;;;;;;3.10;2.90;;;10.30;99.90;;;;;;5066714;28;20456;-90
2023/12/26 16:13:18;;;;;;;3.33;3.13;;;10.30;99.90;;;;;;5066921;28;20040;-89
2023/12/26 16:15:45;;;;;;;2.75;2.65;;;10.20;99.90;;;;;;5068007;28;20044;-90
2023/12/26 16:18:11;;;;;;;2.70;2.60;;;10.20;99.90;;;;;;5069510;28;20039;-91
2023/12/26 16:20:37;;;;;;;2.83;2.72;;;10.10;99.90;;;;;;5070982;28;20044;-90
2023/12/26 16:23:08;;;;;;;2.80;2.70;;;10.10;99.90;;;;;;5069226;27;20046;-90
2023/12/26 16:25:41;;;;;;;2.75;2.65;;;10.10;99.90;;;;;;5071517;28;20051;-91
2023/12/26 16:28:08;;;;;;;2.85;2.75;;;10.10;99.90;;;;;;5076913;28;20396;-91
2023/12/26 16:30:34;;;;;;;2.97;2.80;;;10.10;99.90;;;;;;5068728;28;20040;-89
2023/12/26 16:33:01;;;;;;;2.72;2.63;;;10.10;99.90;;;;;;5068046;28;20132;-89
2023/12/26 16:35:27;;;;;;;2.55;2.45;;;10.00;99.90;;;;;;5068058;28;20044;-88
2023/12/26 16:37:53;;;;;;;2.55;2.45;;;10.00;99.90;;;;;;5070354;28;20054;-90
2023/12/26 16:40:19;;;;;;;2.65;2.55;;;9.90;99.90;;;;;;5067977;28;20043;-90
2023/12/26 16:42:45;;;;;;;2.60;2.50;;;10.00;99.90;;;;;;5065766;28;20040;-90
2023/12/26 16:45:12;;;;;;;2.58;2.47;;;10.00;99.90;;;;;;5064110;28;20044;-90
2023/12/26 16:47:38;;;;;;;2.53;2.42;;;10.00;99.90;;;;;;5067355;28;20051;-90
2023/12/26 16:50:07;;;;;;;2.67;2.58;;;9.90;99.90;;;;;;5068756;28;20059;-92
2023/12/26 16:52:33;;;;;;;2.60;2.50;;;9.90;99.90;;;;;;5069205;28;20105;-91
2023/12/26 16:54:59;;;;;;;2.90;2.70;;;9.80;99.90;;;;;;5067522;28;20067;-90
2023/12/26 16:57:26;;;;;;;2.90;2.70;;;9.80;99.90;;;;;;5064258;28;20136;-91
2023/12/26 16:59:53;;;;;;;3.00;2.80;;;9.80;99.90;;;;;;5069906;28;20084;-92
2023/12/26 17:02:19;;;;;;;3.08;2.88;;;9.80;99.90;;;;;;5087099;28;20116;-91
2023/12/26 17:04:45;;;;;;;3.00;2.80;;;9.70;99.90;;;;;;5072567;28;20096;-89
2023/12/26 17:07:11;;;;;;;2.97;2.78;;;9.70;99.90;;;;;;5065609;28;20641;-90
2023/12/26 17:09:41;;;;;;;2.88;2.67;;;9.60;99.90;;;;;;5069846;28;20095;-91
2023/12/26 17:12:08;;;;;;;3.03;2.83;;;9.60;99.90;;;;;;5069432;28;20035;-89
2023/12/26 17:14:37;;;;;;;2.83;2.67;;;9.50;99.90;;;;;;5089811;28;20035;-90
2023/12/26 17:17:04;;;;;;;2.70;2.58;;;9.60;99.90;;;;;;5073403;28;20357;-92
2023/12/26 17:19:34;;;;;;;2.58;2.47;;;9.70;99.90;;;;;;5069898;28;20052;-90
2023/12/26 17:22:00;;;;;;;2.42;2.33;;;9.60;99.90;;;;;;5069567;28;20043;-91
2023/12/26 17:24:26;;;;;;;2.55;2.45;;;9.70;99.90;;;;;;5072577;28;20042;-90
2023/12/26 17:26:51;;;;;;;2.45;2.35;;;9.70;99.90;;;;;;5073515;28;20653;-90
2023/12/26 17:29:20;;;;;;;2.78;2.60;;;9.70;99.90;;;;;;5086504;28;20071;-89
2023/12/26 17:31:54;;;;;;;2.45;2.35;;;9.80;99.90;;;;;;5070845;28;20040;-89
2023/12/26 17:34:21;;;;;;;2.53;2.42;;;9.80;99.90;;;;;;5085745;28;20047;-91
2023/12/26 17:36:47;;;;;;;2.60;2.50;;;9.80;99.90;;;;;;5088076;28;20047;-91
2023/12/26 17:39:13;;;;;;;2.53;2.42;;;9.80;99.90;;;;;;5071562;28;20520;-89
2023/12/26 17:41:39;;;;;;;2.65;2.53;;;9.70;99.90;;;;;;5068237;28;20047;-89
2023/12/26 17:44:05;;;;;;;2.53;2.42;;;9.60;99.90;;;;;;5072871;28;20048;-90
2023/12/26 17:46:30;;;;;;;2.42;2.33;;;9.60;99.90;;;;;;5070344;28;20048;-91
2023/12/26 17:48:56;;;;;;;2.45;2.35;;;9.50;99.90;;;;;;5076002;28;20153;-89
2023/12/26 17:51:22;;;;;;;2.50;2.40;;;9.40;99.90;;;;;;5071913;28;20047;-90
2023/12/26 17:53:48;;;;;;;2.42;2.33;;;9.30;99.90;;;;;;5073287;27;20047;-92
2023/12/26 17:56:18;;;;;;;2.60;2.47;;;9.30;99.90;;;;;;5073289;28;20092;-90